Time;durP1;ratioP1;P1;durP2;ratioP2;P2;SDS_P1;SDS_P2;PMS_P1;PMS_P2;Temp;Humidity;BMP_temperature;BMP_pressure;BME280_temperature;BME280_humidity;BME280_pressure;Samples;Min_cycle;Max_cycle;Signal;HPM_P1;HPM_P2
2021/10/07 00:01:20;;;;;;;2.90;1.05;;;;;;;;;;4915320;29;20412;-67
2021/10/07 00:03:54;;;;;;;2.05;0.80;;;;;;;;;;4915875;29;20059;-68
2021/10/07 00:06:21;;;;;;;3.03;0.98;;;;;;;;;;4915351;29;20500;-68
2021/10/07 00:08:48;;;;;;;1.67;0.80;;;;;;;;;;4948581;29;20106;-69
2021/10/07 00:11:16;;;;;;;2.40;0.90;;;;;;;;;;4953314;28;20114;-68
2021/10/07 00:13:43;;;;;;;2.38;0.80;;;;;;;;;;4953658;28;20062;-68
2021/10/07 00:16:09;;;;;;;2.95;1.02;;;;;;;;;;4953513;28;20494;-69
2021/10/07 00:18:40;;;;;;;0.98;0.70;;;;;;;;;;4956205;28;20110;-68
2021/10/07 00:21:08;;;;;;;2.00;0.73;;;;;;;;;;4957788;28;20503;-68
2021/10/07 00:23:49;;;;;;;1.70;0.88;;;;;;;;;;4957219;29;20059;-68
2021/10/07 00:26:17;;;;;;;4.43;1.00;;;;;;;;;;4946526;29;20056;-69
2021/10/07 00:28:44;;;;;;;1.27;0.60;;;;;;;;;;4938250;29;20052;-69
2021/10/07 00:31:17;;;;;;;2.10;0.85;;;;;;;;;;4938202;29;20048;-69
2021/10/07 00:34:11;;;;;;;1.02;0.82;;;;;;;;;;4938130;29;20063;-69
2021/10/07 00:39:23;;;;;;;1.75;0.70;;;;;;;;;;4938014;29;20118;-68
2021/10/07 00:41:52;;;;;;;3.03;1.00;;;;;;;;;;4937684;29;20111;-68
2021/10/07 00:44:19;;;;;;;2.28;0.88;;;;;;;;;;4937898;29;20107;-68
2021/10/07 00:46:51;;;;;;;2.65;1.08;;;;;;;;;;4950340;28;20051;-68
2021/10/07 00:49:19;;;;;;;1.05;0.80;;;;;;;;;;4956814;28;20098;-68
2021/10/07 00:51:46;;;;;;;3.10;0.80;;;;;;;;;;4956647;29;20446;-68
2021/10/07 00:54:13;;;;;;;2.70;1.33;;;;;;;;;;4956890;28;20055;-68
2021/10/07 00:56:40;;;;;;;4.40;1.17;;;;;;;;;;4943535;29;20055;-68
2021/10/07 00:59:07;;;;;;;4.18;1.20;;;;;;;;;;4920766;29;20474;-69
2021/10/07 01:01:34;;;;;;;2.13;1.10;;;;;;;;;;4937306;29;20115;-68
2021/10/07 01:04:01;;;;;;;3.10;1.05;;;;;;;;;;4936011;29;20047;-69
2021/10/07 01:06:27;;;;;;;2.00;0.80;;;;;;;;;;4937743;29;20422;-69
2021/10/07 01:08:54;;;;;;;2.53;0.90;;;;;;;;;;4948488;29;20055;-68
2021/10/07 01:11:21;;;;;;;1.73;0.90;;;;;;;;;;4941774;28;20459;-69
2021/10/07 01:13:47;;;;;;;1.83;1.30;;;;;;;;;;4963593;28;20499;-69
2021/10/07 01:16:16;;;;;;;3.30;1.05;;;;;;;;;;4956461;29;20055;-68
2021/10/07 01:18:44;;;;;;;1.80;0.88;;;;;;;;;;4956368;28;20139;-68
2021/10/07 01:21:16;;;;;;;3.47;1.27;;;;;;;;;;4956331;28;20057;-68
2021/10/07 01:23:44;;;;;;;1.27;1.10;;;;;;;;;;4956124;28;20043;-68
2021/10/07 01:26:12;;;;;;;3.17;1.10;;;;;;;;;;4956474;28;20458;-68
2021/10/07 01:28:50;;;;;;;3.20;1.50;;;;;;;;;;4940628;28;20079;-68
2021/10/07 01:31:17;;;;;;;2.38;1.25;;;;;;;;;;4936953;29;20051;-68
2021/10/07 01:33:44;;;;;;;4.32;1.33;;;;;;;;;;4936954;29;20052;-68
2021/10/07 01:36:10;;;;;;;2.58;1.25;;;;;;;;;;4936962;29;20071;-68
2021/10/07 01:38:37;;;;;;;2.70;1.40;;;;;;;;;;4936769;29;20110;-68
2021/10/07 01:41:04;;;;;;;2.05;1.10;;;;;;;;;;4937233;29;20566;-68
2021/10/07 01:43:30;;;;;;;2.22;1.40;;;;;;;;;;4936517;29;20044;-68
2021/10/07 01:45:57;;;;;;;2.33;1.35;;;;;;;;;;4936754;29;20126;-68
2021/10/07 01:48:24;;;;;;;3.47;1.52;;;;;;;;;;4936493;29;20051;-68
2021/10/07 01:50:50;;;;;;;4.07;1.35;;;;;;;;;;4935563;29;20106;-68
2021/10/07 01:53:17;;;;;;;2.83;1.20;;;;;;;;;;4936379;29;20475;-68
2021/10/07 01:55:43;;;;;;;2.53;1.33;;;;;;;;;;4936634;29;20055;-68
2021/10/07 01:58:10;;;;;;;4.18;1.98;;;;;;;;;;4936541;29;20060;-68
2021/10/07 02:00:37;;;;;;;2.10;1.25;;;;;;;;;;4947792;29;20514;-68
2021/10/07 02:03:03;;;;;;;6.60;1.85;;;;;;;;;;4955673;28;20429;-68
2021/10/07 02:05:30;;;;;;;4.43;1.70;;;;;;;;;;4955448;28;20067;-69
2021/10/07 02:07:57;;;;;;;3.50;1.88;;;;;;;;;;4955666;28;20055;-68
2021/10/07 02:10:24;;;;;;;4.45;1.80;;;;;;;;;;4955298;28;20059;-68
2021/10/07 02:12:50;;;;;;;2.45;1.80;;;;;;;;;;4955252;28;20102;-68
2021/10/07 02:15:18;;;;;;;3.85;1.60;;;;;;;;;;4955235;28;20051;-69
2021/10/07 02:17:44;;;;;;;3.50;1.75;;;;;;;;;;4955381;28;20077;-69
2021/10/07 02:20:11;;;;;;;5.85;2.30;;;;;;;;;;4955638;28;20059;-69
2021/10/07 02:22:39;;;;;;;3.63;1.70;;;;;;;;;;4955054;28;20487;-69
2021/10/07 02:25:06;;;;;;;4.60;2.13;;;;;;;;;;4954032;28;20062;-69
2021/10/07 02:27:32;;;;;;;5.15;2.53;;;;;;;;;;4955216;28;20094;-69
2021/10/07 02:29:59;;;;;;;3.22;1.85;;;;;;;;;;4955287;28;20106;-69
2021/10/07 02:32:25;;;;;;;5.75;2.08;;;;;;;;;;4954753;28;20043;-68
2021/10/07 02:34:52;;;;;;;5.70;2.03;;;;;;;;;;4938145;28;20106;-69
2021/10/07 02:37:19;;;;;;;6.93;2.15;;;;;;;;;;4935469;29;20558;-69
2021/10/07 02:39:46;;;;;;;4.70;2.33;;;;;;;;;;4935916;29;20114;-69
2021/10/07 02:42:12;;;;;;;5.68;2.15;;;;;;;;;;4934736;29;20492;-69
2021/10/07 02:44:39;;;;;;;5.43;2.38;;;;;;;;;;4935733;29;20059;-69
2021/10/07 02:47:06;;;;;;;4.60;1.83;;;;;;;;;;4935498;29;20059;-69
2021/10/07 02:49:32;;;;;;;3.85;2.13;;;;;;;;;;4935615;29;20051;-69
2021/10/07 02:51:59;;;;;;;3.03;2.08;;;;;;;;;;4935359;29;20052;-69
2021/10/07 02:54:25;;;;;;;2.63;1.88;;;;;;;;;;4935389;29;20130;-69
2021/10/07 02:56:52;;;;;;;6.25;2.10;;;;;;;;;;4935454;29;20051;-69
2021/10/07 02:59:19;;;;;;;4.35;2.15;;;;;;;;;;4935311;29;20052;-69
2021/10/07 03:01:45;;;;;;;6.65;2.58;;;;;;;;;;4935133;29;20099;-69
2021/10/07 03:04:12;;;;;;;3.35;2.03;;;;;;;;;;4935552;29;20052;-69
2021/10/07 03:06:39;;;;;;;4.85;2.45;;;;;;;;;;4935058;29;20052;-69
2021/10/07 03:09:05;;;;;;;4.03;2.30;;;;;;;;;;4935718;29;20055;-69
2021/10/07 03:11:32;;;;;;;4.18;2.25;;;;;;;;;;4954138;28;20065;-69
2021/10/07 03:13:59;;;;;;;2.92;1.95;;;;;;;;;;4954396;28;20105;-69
2021/10/07 03:16:25;;;;;;;3.92;2.40;;;;;;;;;;4954230;28;20110;-69
2021/10/07 03:18:52;;;;;;;3.75;2.35;;;;;;;;;;4954096;28;20427;-69
2021/10/07 03:21:18;;;;;;;4.40;2.30;;;;;;;;;;4952166;28;20055;-69
2021/10/07 03:23:45;;;;;;;3.03;2.33;;;;;;;;;;4935033;29;20099;-69
2021/10/07 03:26:12;;;;;;;3.75;2.30;;;;;;;;;;4934960;29;20056;-69
2021/10/07 03:28:38;;;;;;;4.28;2.08;;;;;;;;;;4934716;29;20055;-69
2021/10/07 03:31:05;;;;;;;4.45;1.92;;;;;;;;;;4934782;29;20466;-68
2021/10/07 03:33:32;;;;;;;5.30;2.10;;;;;;;;;;4934573;29;20066;-69
2021/10/07 03:35:58;;;;;;;4.55;2.35;;;;;;;;;;4953454;29;20051;-69
2021/10/07 03:38:25;;;;;;;3.45;2.13;;;;;;;;;;4965742;23;20079;-67
2021/10/07 03:40:52;;;;;;;3.33;1.67;;;;;;;;;;4934864;29;20096;-67
2021/10/07 03:43:19;;;;;;;2.38;1.73;;;;;;;;;;4934551;29;20079;-67
2021/10/07 03:45:45;;;;;;;6.65;2.42;;;;;;;;;;4934636;29;20047;-67
2021/10/07 03:48:12;;;;;;;4.40;2.25;;;;;;;;;;4934563;29;20140;-67
2021/10/07 03:50:38;;;;;;;3.03;1.98;;;;;;;;;;4934575;29;20570;-67
2021/10/07 03:53:05;;;;;;;5.47;2.20;;;;;;;;;;4934299;29;20058;-67
2021/10/07 03:55:32;;;;;;;4.00;1.95;;;;;;;;;;4934533;29;20066;-66
2021/10/07 03:58:00;;;;;;;4.00;2.65;;;;;;;;;;4934599;29;20055;-66
2021/10/07 04:00:27;;;;;;;4.80;2.30;;;;;;;;;;4934448;29;20074;-66
2021/10/07 04:02:57;;;;;;;5.32;1.88;;;;;;;;;;4934210;29;20055;-66
2021/10/07 04:05:24;;;;;;;4.35;2.05;;;;;;;;;;4934486;29;20285;-66
2021/10/07 04:07:50;;;;;;;5.25;2.45;;;;;;;;;;4934404;29;20056;-66
2021/10/07 04:10:17;;;;;;;3.75;2.33;;;;;;;;;;4934124;29;20111;-66
2021/10/07 04:12:44;;;;;;;8.63;2.70;;;;;;;;;;4934251;29;20048;-67
2021/10/07 04:15:10;;;;;;;3.88;2.40;;;;;;;;;;4934355;29;20115;-66
2021/10/07 04:17:37;;;;;;;5.50;2.65;;;;;;;;;;4934156;29;20109;-67
2021/10/07 04:20:05;;;;;;;4.15;2.42;;;;;;;;;;4933271;29;20056;-67
2021/10/07 04:22:31;;;;;;;3.90;2.35;;;;;;;;;;4933861;29;20052;-67
2021/10/07 04:24:58;;;;;;;3.72;2.22;;;;;;;;;;4934396;29;20060;-67
2021/10/07 04:27:24;;;;;;;5.88;2.70;;;;;;;;;;4934223;29;20052;-66
2021/10/07 04:29:51;;;;;;;4.10;2.40;;;;;;;;;;4934300;29;20051;-66
2021/10/07 04:32:18;;;;;;;4.70;2.50;;;;;;;;;;4934130;29;20636;-67
2021/10/07 04:34:46;;;;;;;4.93;2.60;;;;;;;;;;4949449;29;20408;-67
2021/10/07 04:37:13;;;;;;;5.13;2.75;;;;;;;;;;4951996;28;20051;-67
2021/10/07 04:39:40;;;;;;;4.10;2.55;;;;;;;;;;4953292;28;20051;-67
2021/10/07 04:42:06;;;;;;;4.45;2.50;;;;;;;;;;4953305;29;20474;-67
2021/10/07 04:44:33;;;;;;;2.88;2.30;;;;;;;;;;4953157;29;20047;-66
2021/10/07 04:46:59;;;;;;;5.50;2.72;;;;;;;;;;4936596;29;20056;-66
2021/10/07 04:49:26;;;;;;;5.85;3.00;;;;;;;;;;4934119;29;20503;-67
2021/10/07 04:51:53;;;;;;;7.25;2.88;;;;;;;;;;4934507;29;20102;-67
2021/10/07 04:54:19;;;;;;;6.72;2.97;;;;;;;;;;4934303;29;20048;-67
2021/10/07 04:56:46;;;;;;;3.47;3.17;;;;;;;;;;4934276;29;20059;-67
2021/10/07 04:59:13;;;;;;;4.28;2.72;;;;;;;;;;4951038;29;20051;-67
2021/10/07 05:01:39;;;;;;;6.85;3.25;;;;;;;;;;4938540;29;20507;-67
2021/10/07 05:04:06;;;;;;;4.07;2.45;;;;;;;;;;4935007;29;20131;-67
2021/10/07 05:06:33;;;;;;;5.82;3.80;;;;;;;;;;4937531;29;20055;-67
2021/10/07 05:08:59;;;;;;;2.90;2.65;;;;;;;;;;4937593;29;20107;-67
2021/10/07 05:11:26;;;;;;;3.72;2.15;;;;;;;;;;4947623;29;20074;-67
2021/10/07 05:13:52;;;;;;;2.55;1.80;;;;;;;;;;4956402;29;20087;-67
2021/10/07 05:16:19;;;;;;;3.42;1.58;;;;;;;;;;4956519;29;20462;-67
2021/10/07 05:18:45;;;;;;;2.33;1.80;;;;;;;;;;4956629;28;20080;-67
2021/10/07 05:21:12;;;;;;;3.33;2.17;;;;;;;;;;4956189;29;20055;-67
2021/10/07 05:23:39;;;;;;;3.70;1.77;;;;;;;;;;4956709;29;20082;-67
2021/10/07 05:26:05;;;;;;;6.57;2.03;;;;;;;;;;4956271;28;20058;-67
2021/10/07 05:28:32;;;;;;;3.92;1.92;;;;;;;;;;4955762;28;20055;-67
2021/10/07 05:30:59;;;;;;;6.35;1.88;;;;;;;;;;4956359;29;20051;-67
2021/10/07 05:33:25;;;;;;;4.13;1.98;;;;;;;;;;4955891;29;20122;-66
2021/10/07 05:35:52;;;;;;;4.65;1.75;;;;;;;;;;4956406;28;20051;-66
2021/10/07 05:38:19;;;;;;;3.10;1.60;;;;;;;;;;4941289;29;20507;-66
2021/10/07 05:40:45;;;;;;;3.95;1.75;;;;;;;;;;4936975;29;20503;-66
2021/10/07 05:43:16;;;;;;;4.22;1.83;;;;;;;;;;4936416;29;20062;-66
2021/10/07 05:45:43;;;;;;;5.97;1.67;;;;;;;;;;4936963;29;20470;-66
2021/10/07 05:48:09;;;;;;;4.90;2.42;;;;;;;;;;4936655;29;20052;-66
2021/10/07 05:50:36;;;;;;;5.90;2.60;;;;;;;;;;4936650;29;20111;-67
2021/10/07 05:53:03;;;;;;;3.28;2.00;;;;;;;;;;4936549;29;20047;-67
2021/10/07 05:55:29;;;;;;;3.42;1.60;;;;;;;;;;4936352;29;20079;-66
2021/10/07 05:57:56;;;;;;;3.50;1.63;;;;;;;;;;4946231;28;20047;-67
2021/10/07 06:00:23;;;;;;;3.28;1.40;;;;;;;;;;4936455;29;20409;-67
2021/10/07 06:02:51;;;;;;;3.88;1.52;;;;;;;;;;4935898;29;20056;-67
2021/10/07 06:05:19;;;;;;;3.05;1.80;;;;;;;;;;4935928;29;20058;-67
2021/10/07 06:07:45;;;;;;;3.63;1.73;;;;;;;;;;4938436;29;20415;-66
2021/10/07 06:10:14;;;;;;;1.63;1.40;;;;;;;;;;4936933;29;20052;-66
2021/10/07 06:12:42;;;;;;;2.50;1.45;;;;;;;;;;4937203;29;20043;-66
2021/10/07 06:15:08;;;;;;;3.17;1.60;;;;;;;;;;4951927;28;20070;-66
2021/10/07 06:17:35;;;;;;;3.67;1.92;;;;;;;;;;4936124;29;20545;-66
2021/10/07 06:20:07;;;;;;;2.30;1.30;;;;;;;;;;4936260;29;20114;-66
2021/10/07 06:22:33;;;;;;;5.70;2.65;;;;;;;;;;4936000;29;20102;-66
2021/10/07 06:25:00;;;;;;;2.88;1.70;;;;;;;;;;4936051;29;20495;-66
2021/10/07 06:27:27;;;;;;;4.90;2.00;;;;;;;;;;4935948;29;20503;-66
2021/10/07 06:29:53;;;;;;;4.32;2.13;;;;;;;;;;4935998;29;20084;-66
2021/10/07 06:32:20;;;;;;;5.22;2.00;;;;;;;;;;4935810;29;20059;-67
2021/10/07 06:34:46;;;;;;;2.67;1.85;;;;;;;;;;4937204;29;20054;-66
2021/10/07 06:37:17;;;;;;;5.70;1.95;;;;;;;;;;4943023;29;20102;-66
2021/10/07 06:39:44;;;;;;;4.03;1.98;;;;;;;;;;4937749;29;20051;-65
2021/10/07 06:42:10;;;;;;;5.15;2.33;;;;;;;;;;4933610;29;20052;-65
2021/10/07 06:44:37;;;;;;;4.68;1.90;;;;;;;;;;4933773;29;20562;-66
2021/10/07 06:47:04;;;;;;;3.72;1.83;;;;;;;;;;4934051;29;20066;-66
2021/10/07 06:49:30;;;;;;;4.47;2.00;;;;;;;;;;4933147;29;20465;-66
2021/10/07 06:51:57;;;;;;;4.07;1.92;;;;;;;;;;4932944;29;20103;-66
2021/10/07 06:54:23;;;;;;;5.50;2.10;;;;;;;;;;4933424;29;20048;-66
2021/10/07 06:56:50;;;;;;;5.03;2.30;;;;;;;;;;4932920;29;20114;-65
2021/10/07 06:59:17;;;;;;;4.10;2.30;;;;;;;;;;4931931;29;20059;-64
2021/10/07 07:01:44;;;;;;;4.57;2.50;;;;;;;;;;4932177;29;20052;-65
2021/10/07 07:04:15;;;;;;;7.38;2.83;;;;;;;;;;4932579;29;20463;-65
2021/10/07 07:06:43;;;;;;;3.92;3.10;;;;;;;;;;4934908;29;20491;-65
2021/10/07 07:09:10;;;;;;;5.47;3.10;;;;;;;;;;4914317;29;20464;-65
2021/10/07 07:11:36;;;;;;;2.90;2.60;;;;;;;;;;4913562;29;20060;-65
2021/10/07 07:14:05;;;;;;;4.53;2.80;;;;;;;;;;4914303;29;20052;-64
2021/10/07 07:16:34;;;;;;;3.25;2.75;;;;;;;;;;4945678;29;20118;-65
2021/10/07 07:19:01;;;;;;;5.38;3.08;;;;;;;;;;4952362;28;20134;-64
2021/10/07 07:21:31;;;;;;;7.68;2.83;;;;;;;;;;4952155;28;20077;-64
2021/10/07 07:23:59;;;;;;;6.82;3.05;;;;;;;;;;4952197;28;20043;-65
2021/10/07 07:26:27;;;;;;;5.35;2.40;;;;;;;;;;4949805;28;20051;-65
2021/10/07 07:28:54;;;;;;;6.18;2.97;;;;;;;;;;4932556;29;20056;-64
2021/10/07 07:31:22;;;;;;;6.25;3.10;;;;;;;;;;4932586;29;20507;-65
2021/10/07 07:33:48;;;;;;;8.90;3.55;;;;;;;;;;4932903;29;20047;-65
2021/10/07 07:36:17;;;;;;;6.20;3.20;;;;;;;;;;4932910;29;20115;-65
2021/10/07 07:38:44;;;;;;;6.05;3.70;;;;;;;;;;4932651;29;20083;-65
2021/10/07 07:41:31;;;;;;;7.53;3.13;;;;;;;;;;4939107;29;20134;-65
2021/10/07 07:43:57;;;;;;;6.80;4.18;;;;;;;;;;4939163;29;20467;-65
2021/10/07 07:46:24;;;;;;;3.97;3.53;;;;;;;;;;4938466;29;20476;-65
2021/10/07 07:48:51;;;;;;;9.55;5.10;;;;;;;;;;4942412;28;20111;-69
2021/10/07 07:51:18;;;;;;;7.95;4.43;;;;;;;;;;4932854;29;20124;-65
2021/10/07 07:53:46;;;;;;;8.73;5.25;;;;;;;;;;4932466;29;20087;-65
2021/10/07 07:56:14;;;;;;;7.15;5.85;;;;;;;;;;4932160;29;20134;-65
2021/10/07 07:58:41;;;;;;;9.23;6.00;;;;;;;;;;4949242;28;20055;-65
2021/10/07 08:01:08;;;;;;;9.40;6.45;;;;;;;;;;4951819;28;20047;-64
2021/10/07 08:03:35;;;;;;;10.40;6.80;;;;;;;;;;4951358;29;20047;-65
2021/10/07 08:06:02;;;;;;;9.38;5.88;;;;;;;;;;4951745;29;20110;-66
2021/10/07 08:08:28;;;;;;;6.50;5.88;;;;;;;;;;4947344;28;20459;-65
2021/10/07 08:10:55;;;;;;;7.55;5.65;;;;;;;;;;4932004;29;20051;-65
2021/10/07 08:13:22;;;;;;;7.47;4.50;;;;;;;;;;4932182;29;20051;-65
2021/10/07 08:15:50;;;;;;;7.10;6.25;;;;;;;;;;4932425;29;20052;-65
2021/10/07 08:18:18;;;;;;;15.20;6.93;;;;;;;;;;4932422;29;20094;-65
2021/10/07 08:20:45;;;;;;;10.23;6.28;;;;;;;;;;4932896;29;20052;-65
2021/10/07 08:23:13;;;;;;;9.50;6.50;;;;;;;;;;4940900;29;20051;-65
2021/10/07 08:25:40;;;;;;;10.45;5.97;;;;;;;;;;4932119;29;20070;-68
2021/10/07 08:28:08;;;;;;;10.30;6.20;;;;;;;;;;4932974;29;20534;-65
2021/10/07 08:30:36;;;;;;;6.32;4.85;;;;;;;;;;4933642;29;20047;-68
2021/10/07 08:33:03;;;;;;;10.52;4.95;;;;;;;;;;4933839;29;20048;-70
2021/10/07 08:35:31;;;;;;;6.95;5.05;;;;;;;;;;4948426;29;20095;-69
2021/10/07 08:37:59;;;;;;;9.88;5.57;;;;;;;;;;4953171;28;20098;-68
2021/10/07 08:40:27;;;;;;;6.43;5.53;;;;;;;;;;4956407;28;20059;-68
2021/10/07 08:42:54;;;;;;;8.05;5.47;;;;;;;;;;4956798;28;20135;-67
2021/10/07 08:45:21;;;;;;;10.40;6.28;;;;;;;;;;4957075;29;20055;-69
2021/10/07 08:47:50;;;;;;;9.90;6.32;;;;;;;;;;4952087;28;20055;-69
2021/10/07 08:50:18;;;;;;;8.90;5.88;;;;;;;;;;4936631;29;20122;-68
2021/10/07 08:52:49;;;;;;;10.55;6.25;;;;;;;;;;4936246;29;20052;-67
2021/10/07 08:55:19;;;;;;;7.03;5.28;;;;;;;;;;4937770;29;20463;-70
2021/10/07 08:57:46;;;;;;;7.28;5.18;;;;;;;;;;4937623;29;20063;-69
2021/10/07 09:00:14;;;;;;;8.30;5.15;;;;;;;;;;4937661;29;20059;-67
2021/10/07 09:02:41;;;;;;;7.72;5.88;;;;;;;;;;4952153;29;20132;-67
2021/10/07 09:05:20;;;;;;;6.32;5.60;;;;;;;;;;4955285;28;20510;-69
2021/10/07 09:08:04;;;;;;;10.18;5.93;;;;;;;;;;4954830;28;20106;-69
2021/10/07 09:10:50;;;;;;;8.00;5.50;;;;;;;;;;4955774;29;20475;-67
2021/10/07 09:13:20;;;;;;;10.63;6.05;;;;;;;;;;4950645;28;20463;-66
2021/10/07 09:16:08;;;;;;;5.38;4.43;;;;;;;;;;4931343;29;20139;-67
2021/10/07 09:18:36;;;;;;;8.70;4.15;;;;;;;;;;4929767;29;20570;-67
2021/10/07 09:21:03;;;;;;;4.07;3.42;;;;;;;;;;4930424;29;20115;-66
2021/10/07 09:23:33;;;;;;;3.80;3.40;;;;;;;;;;4931816;29;20063;-66
2021/10/07 09:26:10;;;;;;;5.63;3.88;;;;;;;;;;4935077;29;20052;-65
2021/10/07 09:28:58;;;;;;;4.65;3.92;;;;;;;;;;4937399;29;20404;-65
2021/10/07 09:31:30;;;;;;;6.15;3.75;;;;;;;;;;4932966;29;20055;-66
2021/10/07 09:33:58;;;;;;;5.82;3.67;;;;;;;;;;4935075;29;20056;-66
2021/10/07 09:36:27;;;;;;;7.75;4.22;;;;;;;;;;4934672;29;20138;-66
2021/10/07 09:38:54;;;;;;;7.95;4.40;;;;;;;;;;4934772;29;20083;-66
2021/10/07 09:41:26;;;;;;;5.00;3.65;;;;;;;;;;4944416;29;20469;-65
2021/10/07 09:43:54;;;;;;;8.48;4.65;;;;;;;;;;4952135;29;20106;-66
2021/10/07 09:46:40;;;;;;;7.35;4.47;;;;;;;;;;4953743;29;20055;-66
2021/10/07 09:49:12;;;;;;;5.40;4.20;;;;;;;;;;4946171;28;20488;-66
2021/10/07 09:51:47;;;;;;;5.28;4.75;;;;;;;;;;4933974;29;20052;-65
2021/10/07 09:54:25;;;;;;;5.88;4.15;;;;;;;;;;4934604;29;20103;-65
2021/10/07 09:56:56;;;;;;;4.45;4.03;;;;;;;;;;4931715;29;20103;-70
2021/10/07 09:59:24;;;;;;;6.75;4.30;;;;;;;;;;4923201;29;20056;-73
2021/10/07 10:01:54;;;;;;;6.22;4.18;;;;;;;;;;4929154;29;20056;-66
2021/10/07 10:04:26;;;;;;;4.38;3.78;;;;;;;;;;4947262;23;20047;-70
2021/10/07 10:06:53;;;;;;;14.38;6.22;;;;;;;;;;4925952;29;20443;-73
2021/10/07 10:09:27;;;;;;;9.45;5.32;;;;;;;;;;4925892;29;20051;-71
2021/10/07 10:11:53;;;;;;;6.65;4.72;;;;;;;;;;4925237;29;20058;-68
2021/10/07 10:14:21;;;;;;;6.88;5.82;;;;;;;;;;4939709;29;20054;-69
2021/10/07 10:16:48;;;;;;;9.32;5.60;;;;;;;;;;4924781;29;20095;-70
2021/10/07 10:19:15;;;;;;;9.50;5.95;;;;;;;;;;4913270;29;20052;-69
2021/10/07 10:21:42;;;;;;;7.07;5.32;;;;;;;;;;4923793;29;20119;-69
2021/10/07 10:24:09;;;;;;;7.00;5.10;;;;;;;;;;4911807;29;20059;-69
2021/10/07 10:26:37;;;;;;;5.53;4.68;;;;;;;;;;4929801;29;20051;-69
2021/10/07 10:29:22;;;;;;;5.40;4.55;;;;;;;;;;4925159;29;20106;-70
2021/10/07 10:31:53;;;;;;;6.22;3.72;;;;;;;;;;4934081;29;20052;-69
2021/10/07 10:34:21;;;;;;;5.25;4.00;;;;;;;;;;4924669;29;20099;-70
2021/10/07 10:36:53;;;;;;;4.78;4.07;;;;;;;;;;4920700;29;20060;-70
2021/10/07 10:39:40;;;;;;;5.45;3.88;;;;;;;;;;4921018;29;20048;-70
2021/10/07 10:42:28;;;;;;;5.88;4.18;;;;;;;;;;4925005;29;20074;-70
2021/10/07 10:44:56;;;;;;;6.70;4.40;;;;;;;;;;4922010;29;20052;-70
2021/10/07 10:47:31;;;;;;;4.25;3.83;;;;;;;;;;4919357;29;20060;-69
2021/10/07 10:50:11;;;;;;;6.68;3.42;;;;;;;;;;4925742;29;20055;-70
2021/10/07 10:52:45;;;;;;;4.22;3.30;;;;;;;;;;4924354;29;20052;-70
2021/10/07 10:55:17;;;;;;;3.50;3.20;;;;;;;;;;4924449;29;20419;-70
2021/10/07 10:57:50;;;;;;;3.83;3.10;;;;;;;;;;4921947;29;20052;-70
2021/10/07 11:00:39;;;;;;;3.38;3.08;;;;;;;;;;4923124;29;20521;-69
2021/10/07 11:03:06;;;;;;;3.90;2.90;;;;;;;;;;4921832;29;20048;-71
2021/10/07 11:05:34;;;;;;;5.43;3.80;;;;;;;;;;4923371;29;20456;-71
2021/10/07 11:08:20;;;;;;;2.25;2.03;;;;;;;;;;4923170;29;20087;-71
2021/10/07 11:11:04;;;;;;;5.27;2.20;;;;;;;;;;4926283;29;20075;-70
2021/10/07 11:13:33;;;;;;;3.55;2.72;;;;;;;;;;4920986;29;20343;-70
2021/10/07 11:16:05;;;;;;;2.70;2.50;;;;;;;;;;4923519;29;20410;-69
2021/10/07 11:18:35;;;;;;;5.90;3.00;;;;;;;;;;4924183;29;20056;-69
2021/10/07 11:21:05;;;;;;;3.95;2.97;;;;;;;;;;4922876;29;20105;-70
2021/10/07 11:23:33;;;;;;;4.20;2.92;;;;;;;;;;4923129;29;20052;-68
2021/10/07 11:26:00;;;;;;;6.88;3.45;;;;;;;;;;4923104;29;20051;-69
2021/10/07 11:28:38;;;;;;;4.38;3.17;;;;;;;;;;4926005;29;20052;-70
2021/10/07 11:31:12;;;;;;;3.70;2.88;;;;;;;;;;4926219;29;20632;-69
2021/10/07 11:33:41;;;;;;;5.03;3.08;;;;;;;;;;4921097;29;20052;-69
2021/10/07 11:36:17;;;;;;;4.05;2.22;;;;;;;;;;4930561;29;20044;-68
2021/10/07 11:38:45;;;;;;;7.45;3.88;;;;;;;;;;4923119;29;20056;-67
2021/10/07 11:41:14;;;;;;;3.28;2.65;;;;;;;;;;4924654;29;20561;-69
2021/10/07 11:43:41;;;;;;;4.43;3.58;;;;;;;;;;4922771;29;20052;-69
2021/10/07 11:46:12;;;;;;;6.07;3.30;;;;;;;;;;4923562;29;20099;-68
2021/10/07 11:48:46;;;;;;;3.85;3.15;;;;;;;;;;4924609;29;20048;-69
2021/10/07 11:51:17;;;;;;;5.38;4.13;;;;;;;;;;4922890;29;20047;-69
2021/10/07 11:53:44;;;;;;;6.25;3.45;;;;;;;;;;4924408;29;20095;-69
2021/10/07 11:56:11;;;;;;;6.82;3.63;;;;;;;;;;4926224;29;20047;-70
2021/10/07 11:58:38;;;;;;;7.30;3.00;;;;;;;;;;4926691;29;20102;-69
2021/10/07 12:01:05;;;;;;;4.45;3.15;;;;;;;;;;4930457;29;20586;-68
2021/10/07 12:03:33;;;;;;;5.10;3.00;;;;;;;;;;4930127;29;20522;-68
2021/10/07 12:06:08;;;;;;;4.65;3.38;;;;;;;;;;4929911;29;20043;-69
2021/10/07 12:08:39;;;;;;;4.75;3.15;;;;;;;;;;4933478;29;20051;-68
2021/10/07 12:11:24;;;;;;;4.38;3.60;;;;;;;;;;4932749;29;20522;-68
2021/10/07 12:14:00;;;;;;;3.85;3.45;;;;;;;;;;4934952;29;20052;-68
2021/10/07 12:16:31;;;;;;;4.05;3.10;;;;;;;;;;4939313;29;20444;-69
2021/10/07 12:19:03;;;;;;;3.70;3.25;;;;;;;;;;4939614;29;20048;-69
2021/10/07 12:21:31;;;;;;;8.13;3.33;;;;;;;;;;4939197;29;20562;-69
2021/10/07 12:23:59;;;;;;;5.32;3.50;;;;;;;;;;4933259;29;20138;-70
2021/10/07 12:26:46;;;;;;;4.47;2.80;;;;;;;;;;4934531;29;20141;-69
2021/10/07 12:29:18;;;;;;;5.20;3.08;;;;;;;;;;4931238;29;20055;-68
2021/10/07 12:31:51;;;;;;;4.20;3.15;;;;;;;;;;4928787;29;20522;-69
2021/10/07 12:34:18;;;;;;;3.35;2.80;;;;;;;;;;4935555;29;20055;-68
2021/10/07 12:36:49;;;;;;;3.22;2.75;;;;;;;;;;4935700;29;20039;-69
2021/10/07 12:39:43;;;;;;;4.00;2.80;;;;;;;;;;4935658;29;20440;-69
2021/10/07 12:42:10;;;;;;;6.25;3.90;;;;;;;;;;4935814;29;20447;-68
2021/10/07 12:44:39;;;;;;;7.65;3.42;;;;;;;;;;4936249;29;20677;-68
2021/10/07 12:47:07;;;;;;;5.25;3.38;;;;;;;;;;4938191;29;20051;-68
2021/10/07 12:49:39;;;;;;;7.93;4.00;;;;;;;;;;4933569;29;20102;-69
2021/10/07 12:52:14;;;;;;;6.40;2.97;;;;;;;;;;4931137;29;20554;-69
2021/10/07 12:54:41;;;;;;;6.55;3.25;;;;;;;;;;4935319;29;20059;-68
2021/10/07 12:57:09;;;;;;;3.70;2.95;;;;;;;;;;4933441;29;20585;-68
2021/10/07 13:00:09;;;;;;;3.45;2.67;;;;;;;;;;4931664;29;20525;-68
2021/10/07 13:02:37;;;;;;;7.20;3.10;;;;;;;;;;4904151;29;20055;-68
2021/10/07 13:05:26;;;;;;;3.67;2.65;;;;;;;;;;4933751;29;20050;-68
2021/10/07 13:07:56;;;;;;;5.55;2.40;;;;;;;;;;4930400;29;20487;-68
2021/10/07 13:10:27;;;;;;;3.33;1.85;;;;;;;;;;4929187;29;20079;-69
2021/10/07 13:12:54;;;;;;;2.88;1.88;;;;;;;;;;4935945;29;20055;-68
2021/10/07 13:15:21;;;;;;;4.03;1.98;;;;;;;;;;4931478;29;20079;-69
2021/10/07 13:17:47;;;;;;;3.90;1.95;;;;;;;;;;4935383;29;20475;-69
2021/10/07 13:20:15;;;;;;;4.57;2.63;;;;;;;;;;4935729;29;20133;-68
2021/10/07 13:22:42;;;;;;;2.83;1.88;;;;;;;;;;4936779;29;20495;-69
2021/10/07 13:25:13;;;;;;;4.18;1.90;;;;;;;;;;4932003;29;20067;-68
2021/10/07 13:27:41;;;;;;;2.28;1.48;;;;;;;;;;4932589;29;20571;-69
2021/10/07 13:30:13;;;;;;;3.50;2.10;;;;;;;;;;4926745;29;20047;-69
2021/10/07 13:32:44;;;;;;;3.08;1.75;;;;;;;;;;4930053;29;20054;-68
2021/10/07 13:35:12;;;;;;;1.60;1.50;;;;;;;;;;4929273;29;20048;-70
2021/10/07 13:37:38;;;;;;;1.80;1.35;;;;;;;;;;4921993;29;20115;-71
2021/10/07 13:40:06;;;;;;;1.80;1.70;;;;;;;;;;4924701;29;20431;-69
2021/10/07 13:42:33;;;;;;;2.17;1.33;;;;;;;;;;4923269;29;20087;-69
2021/10/07 13:44:59;;;;;;;2.88;1.73;;;;;;;;;;4924063;29;20107;-70
2021/10/07 13:47:26;;;;;;;3.25;1.75;;;;;;;;;;4926699;29;20470;-70
2021/10/07 13:49:53;;;;;;;5.63;2.10;;;;;;;;;;4923711;29;20051;-70
2021/10/07 13:52:25;;;;;;;3.08;1.70;;;;;;;;;;4923446;29;20052;-71
2021/10/07 13:54:53;;;;;;;3.08;1.52;;;;;;;;;;4922825;29;20104;-68
2021/10/07 13:57:21;;;;;;;3.05;1.45;;;;;;;;;;4926579;29;20052;-70
2021/10/07 13:59:48;;;;;;;2.38;1.40;;;;;;;;;;4923383;29;20052;-70
2021/10/07 14:02:15;;;;;;;2.67;1.80;;;;;;;;;;4929103;29;20480;-70
2021/10/07 14:04:41;;;;;;;2.42;1.65;;;;;;;;;;4924643;29;20119;-68
2021/10/07 14:07:08;;;;;;;1.90;1.50;;;;;;;;;;4925219;29;20044;-69
2021/10/07 14:09:35;;;;;;;1.70;1.58;;;;;;;;;;4922687;29;20107;-69
2021/10/07 14:12:02;;;;;;;3.97;2.47;;;;;;;;;;4925909;29;20118;-69
2021/10/07 14:14:29;;;;;;;3.22;2.28;;;;;;;;;;4925897;29;20090;-69
2021/10/07 14:16:56;;;;;;;1.92;1.08;;;;;;;;;;4923550;29;20051;-69
2021/10/07 14:19:23;;;;;;;2.20;1.10;;;;;;;;;;4926812;29;20079;-69
2021/10/07 14:21:53;;;;;;;1.83;1.55;;;;;;;;;;4923054;29;20052;-68
2021/10/07 14:24:20;;;;;;;2.15;1.95;;;;;;;;;;4933402;29;20467;-67
2021/10/07 14:26:47;;;;;;;2.60;1.98;;;;;;;;;;4935510;29;20455;-67
2021/10/07 14:29:13;;;;;;;2.78;1.70;;;;;;;;;;4935814;29;20052;-67
2021/10/07 14:31:40;;;;;;;3.20;2.03;;;;;;;;;;4935457;29;20062;-67
2021/10/07 14:34:07;;;;;;;4.28;2.35;;;;;;;;;;4933595;29;20059;-68
2021/10/07 14:36:35;;;;;;;2.58;1.80;;;;;;;;;;4932662;29;20131;-67
2021/10/07 14:39:02;;;;;;;2.50;2.30;;;;;;;;;;4933780;29;20475;-67
2021/10/07 14:41:29;;;;;;;3.97;2.50;;;;;;;;;;4932396;29;20055;-67
2021/10/07 14:43:56;;;;;;;3.35;2.58;;;;;;;;;;4933633;29;20051;-67
2021/10/07 14:46:25;;;;;;;3.47;2.30;;;;;;;;;;4932754;29;20055;-67
2021/10/07 14:48:52;;;;;;;2.20;1.83;;;;;;;;;;4933800;29;20139;-66
2021/10/07 14:51:19;;;;;;;3.47;1.80;;;;;;;;;;4933042;29;20515;-67
2021/10/07 14:53:47;;;;;;;3.17;2.42;;;;;;;;;;4933146;29;20056;-67
2021/10/07 14:56:14;;;;;;;4.53;3.03;;;;;;;;;;4933190;29;20539;-67